Detall de PIREP

Printer-friendly versionPDF version

[2015/03/19 09:17:00]
Flight IATA:CT2101
Pilot Number:041
Company ICAO:CAT
Aircraft Type:F50/A
PAX:39
Aircraft Registration:PAOB
Departing Airport: LEAS
Destination Airport: LEVC
Alternate Airport:LEBL
Online: VATSIM
Route:XONDA/N380F220 R107 ZMR/N430F340 UL155 NVS UM871 ABOSI
Flight Level:FL140
No Slew and time accel
No pause
Crash detect
Detect pilot in Cockpit between each 30 and 45 minutes
09:17 Zero fuel Weight: 36709 Lbs, Fuel Weight: 5304 Lbs
09:17 VATSIM:LEAS 190900Z 00000KT 5000 BR BKN018 11/10 Q1021 TEMPO 3000 RA BR
09:17 VATSIM:LEVC 190900Z 05016G28KT 020V080 5000 -DZ BR FEW015 OVC025 13/10 Q1016 NOSIG
09:17 VOICE CATALONIAN
09:18 Parking Brakes off
09:28 Take-off
09:28 Take off Weight: 41959 Lbs
09:28 Wind: 069º @ 001 Knots Heading: 106º
09:28 POS N43º 33´ 48´´ W006º 02´ 02´´
09:28 Gear Up: 120 Knots
09:28 Flaps:2 at 121 Knots
09:28 Flaps:1 at 125 Knots
09:29 Flaps:0 at 122 Knots
09:43 Wind:270º@034 Knots Heading: 181º Ground Speed: 233 Knots Altitude 13162 ft
09:58 Wind:270º@034 Knots Heading: 180º Ground Speed: 232 Knots Altitude 13110 ft
10:04 TOC
10:04 Fuel Weight: 4467 Lb
10:13 Wind:267º@024 Knots Heading: 149º Ground Speed: 242 Knots Altitude 14081 ft
10:28 Wind:270º@015 Knots Heading: 104º Ground Speed: 242 Knots Altitude 14094 ft
10:43 Wind:274º@014 Knots Heading: 106º Ground Speed: 243 Knots Altitude 14081 ft
10:55 TOD
10:55 Fuel Weight: 3398 Lb
10:58 Wind:282º@006 Knots Heading: 107º Ground Speed: 256 Knots Altitude 11256 ft
11:10 Flaps:1 at 206 Knots
11:10 Flaps:2 at 190 Knots
11:11 Flaps:3 at 159 Knots
11:11 Flaps:4 at 152 Knots
11:11 Gear Down: 146 Knots
11:11 Flaps:5 at 119 Knots
11:11 Flaps:4 at 117 Knots
11:11 Flaps:5 at 114 Knots
11:11 Flaps:6 at 114 Knots
11:13 Wind:048º@017 Knots Heading: 108º Ground Speed: 103 Knots Altitude 879 ft
11:14 TouchDown:Rate -179 ft/min Speed: 86 Knots
11:14 Flaps:4 at 62 Knots
11:14 Flaps:3 at 14 Knots
11:14 VATSIM:LEVC 191100Z 05014KT 010V080 5000 BR FEW015 BKN020 13/11 Q1016 NOSIG
11:14 Land
11:14 Wind:049º@015 Knots
11:14 Heading: 113º
11:14 Flight Duration: 01:46
11:14 Landing Weight: 39754 Lbs
11:14 POS N39º 29´ 29´´ W000º 29´ 14´´
11:17 Parking brakes on
11:17 Block to Block Duration: 01:59
11:17 Final Fuel: 3029 Lbls
11:17 Spent Fuel: 2275 Lbls
11:17 Flight Length: 403 NM
11:17 TOD Land Length: 69 NM

Exportar CSV

Powered by Drupal - Modified by Danger4k